createdAt,value
2019-01-25T00:01:54.823Z,5.10
2019-01-25T00:04:45.392Z,4.87
2019-01-25T00:07:35.917Z,4.27
2019-01-25T00:10:26.629Z,4.90
2019-01-25T00:13:16.871Z,4.03
2019-01-25T00:16:08.010Z,5.07
2019-01-25T00:18:58.365Z,4.53
2019-01-25T00:21:49.102Z,5.00
2019-01-25T00:24:39.316Z,5.40
2019-01-25T00:27:30.155Z,5.10
2019-01-25T00:30:20.790Z,4.77
2019-01-25T00:33:11.327Z,5.43
2019-01-25T00:36:01.745Z,5.20
2019-01-25T00:38:53.442Z,4.73
2019-01-25T00:41:43.745Z,5.37
2019-01-25T00:44:34.319Z,5.50
2019-01-25T00:47:24.851Z,4.60
2019-01-25T00:50:17.602Z,4.40
2019-01-25T00:53:08.066Z,4.60
2019-01-25T00:55:58.502Z,4.30
2019-01-25T00:58:49.352Z,4.33
2019-01-25T01:01:39.798Z,5.53
2019-01-25T01:04:30.254Z,4.87
2019-01-25T01:07:20.719Z,5.00
2019-01-25T01:10:14.138Z,4.63
2019-01-25T01:13:04.272Z,5.10
2019-01-25T01:15:54.765Z,5.00
2019-01-25T01:18:45.050Z,5.00
2019-01-25T01:21:35.554Z,4.43
2019-01-25T01:24:26.132Z,4.43
2019-01-25T01:27:16.620Z,4.13
2019-01-25T01:30:07.868Z,4.00
2019-01-25T01:32:58.244Z,3.97
2019-01-25T01:35:48.934Z,4.17
2019-01-25T01:38:39.401Z,3.30
2019-01-25T01:41:30.478Z,4.17
2019-01-25T01:44:20.697Z,4.03
2019-01-25T01:47:11.242Z,3.43
2019-01-25T01:50:01.713Z,3.57
2019-01-25T01:52:52.965Z,3.37
2019-01-25T01:55:43.144Z,3.37
2019-01-25T01:58:33.660Z,3.13
2019-01-25T02:01:24.157Z,2.80
2019-01-25T02:04:14.645Z,3.60
2019-01-25T02:07:05.149Z,2.70
2019-01-25T02:09:55.770Z,4.33
2019-01-25T02:12:46.385Z,4.03
2019-01-25T02:15:38.377Z,3.90
2019-01-25T02:18:28.976Z,4.83
2019-01-25T02:21:19.669Z,5.33
2019-01-25T02:24:10.083Z,4.67
2019-01-25T02:27:00.319Z,5.70
2019-01-25T02:29:52.651Z,5.30
2019-01-25T02:32:45.502Z,5.43
2019-01-25T02:35:35.850Z,4.47
2019-01-25T02:38:26.166Z,4.60
2019-01-25T02:41:16.689Z,5.23
2019-01-25T02:44:07.060Z,5.13
2019-01-25T02:46:57.453Z,5.27
2019-01-25T02:49:48.156Z,4.83
2019-01-25T02:52:38.587Z,4.80
2019-01-25T02:55:29.174Z,4.90
2019-01-25T02:58:19.756Z,3.90
2019-01-25T03:01:13.209Z,4.10
2019-01-25T03:04:03.553Z,3.60
2019-01-25T03:06:53.927Z,3.20
2019-01-25T03:09:44.333Z,4.07
2019-01-25T03:12:34.615Z,5.37
2019-01-25T03:15:26.834Z,4.40
2019-01-25T03:18:17.398Z,4.47
2019-01-25T03:21:07.845Z,4.50
2019-01-25T03:23:58.482Z,6.00
2019-01-25T03:26:49.033Z,5.73
2019-01-25T03:29:39.453Z,5.20
2019-01-25T03:32:29.893Z,5.23
2019-01-25T03:35:21.658Z,5.30
2019-01-25T03:38:12.160Z,5.10
2019-01-25T03:41:02.892Z,4.90
2019-01-25T03:43:53.651Z,4.57
2019-01-25T03:46:43.907Z,4.10
2019-01-25T03:49:34.409Z,3.80
2019-01-25T03:52:24.948Z,3.50
2019-01-25T03:55:15.839Z,4.00
2019-01-25T03:58:06.437Z,3.20
2019-01-25T04:00:56.952Z,3.10
2019-01-25T04:03:47.617Z,3.20
2019-01-25T04:06:38.036Z,3.30
2019-01-25T04:09:28.503Z,3.30
2019-01-25T04:12:20.024Z,3.37
2019-01-25T04:15:12.966Z,3.40
2019-01-25T04:18:03.405Z,3.57
2019-01-25T04:20:54.136Z,3.73
2019-01-25T04:23:44.820Z,3.90
2019-01-25T04:26:35.390Z,3.50
2019-01-25T04:29:25.829Z,3.73
2019-01-25T04:32:16.221Z,4.43
2019-01-25T04:35:06.797Z,4.67
2019-01-25T04:37:57.092Z,5.70
2019-01-25T04:40:52.026Z,6.80
2019-01-25T04:43:43.637Z,8.37
2019-01-25T04:46:36.104Z,9.50
2019-01-25T04:49:26.708Z,10.27
2019-01-25T04:52:16.861Z,10.90
2019-01-25T04:55:26.293Z,12.07
2019-01-25T04:58:20.556Z,11.40
2019-01-25T05:01:11.718Z,10.57
2019-01-25T05:04:01.891Z,11.47
2019-01-25T05:06:52.195Z,12.30
2019-01-25T05:09:42.693Z,12.00
2019-01-25T05:12:32.989Z,10.97
2019-01-25T05:15:23.553Z,11.40
2019-01-25T05:18:15.141Z,11.07
2019-01-25T05:21:05.427Z,11.13
2019-01-25T05:23:55.997Z,11.03
2019-01-25T05:26:46.625Z,10.40
2019-01-25T05:30:06.316Z,10.43
2019-01-25T05:32:56.529Z,9.47
2019-01-25T05:35:47.057Z,9.33
2019-01-25T05:38:38.533Z,10.90
2019-01-25T05:41:30.286Z,12.57
2019-01-25T05:44:20.800Z,13.37
2019-01-25T05:47:11.979Z,13.97
2019-01-25T05:50:02.448Z,16.23
2019-01-25T05:52:53.148Z,16.93
2019-01-25T05:55:43.319Z,18.73
2019-01-25T05:58:33.860Z,17.37
2019-01-25T06:01:24.609Z,16.60
2019-01-25T06:04:15.400Z,15.90
2019-01-25T06:07:07.191Z,14.03
2019-01-25T06:09:59.600Z,13.27
2019-01-25T06:12:54.788Z,10.60
2019-01-25T06:15:45.393Z,8.47
2019-01-25T06:18:35.769Z,10.63
2019-01-25T06:21:26.545Z,10.93
2019-01-25T06:24:17.381Z,15.27
2019-01-25T06:27:07.793Z,16.90
2019-01-25T06:29:58.372Z,17.17
2019-01-25T06:32:48.660Z,18.60
2019-01-25T06:35:38.923Z,19.57
2019-01-25T06:38:29.555Z,19.53
2019-01-25T06:41:20.251Z,19.33
2019-01-25T06:44:10.751Z,20.70
2019-01-25T06:47:01.053Z,20.50
2019-01-25T06:49:51.804Z,21.33
2019-01-25T06:52:42.498Z,21.00
2019-01-25T06:55:33.207Z,23.57
2019-01-25T06:58:41.526Z,22.40
2019-01-25T07:01:40.796Z,23.60
2019-01-25T07:04:31.028Z,21.40
2019-01-25T07:07:31.596Z,14.70
2019-01-25T07:10:21.958Z,11.60
2019-01-25T07:13:12.207Z,12.60
2019-01-25T07:16:02.740Z,9.27
2019-01-25T07:18:53.259Z,8.57
2019-01-25T07:21:43.789Z,10.73
2019-01-25T07:24:34.131Z,10.13
2019-01-25T07:27:24.669Z,12.83
2019-01-25T07:30:15.184Z,12.07
2019-01-25T07:33:05.521Z,12.50
2019-01-25T07:35:57.061Z,16.23
2019-01-25T07:38:47.877Z,20.50
2019-01-25T07:41:38.518Z,20.83
2019-01-25T07:44:29.404Z,23.27
2019-01-25T07:47:23.262Z,24.33
2019-01-25T07:50:15.238Z,27.13
2019-01-25T07:53:05.672Z,28.60
2019-01-25T07:55:55.864Z,29.33
2019-01-25T07:58:46.428Z,30.00
2019-01-25T08:01:36.906Z,31.13
2019-01-25T08:04:27.311Z,32.37
2019-01-25T08:07:17.835Z,33.30
2019-01-25T08:10:10.495Z,29.83
2019-01-25T08:13:00.887Z,30.73
2019-01-25T08:15:52.141Z,29.57
2019-01-25T08:18:42.440Z,30.83
2019-01-25T08:21:32.931Z,30.00
2019-01-25T08:24:23.696Z,30.20
2019-01-25T08:27:14.276Z,31.10
2019-01-25T08:30:05.625Z,26.60
2019-01-25T08:32:56.027Z,23.57
2019-01-25T08:35:46.258Z,16.00
2019-01-25T08:38:37.120Z,16.73
2019-01-25T08:41:27.626Z,15.73
2019-01-25T08:44:17.895Z,10.13
2019-01-25T08:47:08.670Z,9.33
2019-01-25T08:49:59.449Z,8.00
2019-01-25T08:52:50.090Z,6.27
2019-01-25T08:55:40.738Z,6.40
2019-01-25T08:58:31.059Z,5.70
2019-01-25T09:01:21.693Z,6.97
2019-01-25T09:04:12.294Z,7.70
2019-01-25T09:07:03.001Z,9.83
2019-01-25T09:09:53.315Z,11.80
2019-01-25T09:12:43.852Z,12.17
2019-01-25T09:15:35.420Z,12.23
2019-01-25T09:18:25.775Z,16.40
2019-01-25T09:21:16.322Z,16.17
2019-01-25T09:24:07.007Z,18.00
2019-01-25T09:26:57.519Z,17.87
2019-01-25T09:29:48.129Z,17.50
2019-01-25T09:32:38.394Z,16.70
2019-01-25T09:35:28.953Z,16.67
2019-01-25T09:38:19.581Z,14.33
2019-01-25T09:41:10.690Z,14.37
2019-01-25T09:44:01.044Z,15.37
2019-01-25T09:46:53.478Z,14.63
2019-01-25T09:49:43.967Z,13.77
2019-01-25T09:52:34.618Z,13.00
2019-01-25T09:55:25.425Z,12.17
2019-01-25T09:58:17.898Z,13.43
2019-01-25T10:01:10.154Z,13.03
2019-01-25T10:04:00.719Z,12.50
2019-01-25T10:06:51.218Z,12.33
2019-01-25T10:09:41.745Z,10.70
2019-01-25T10:12:36.094Z,11.97
2019-01-25T10:15:25.677Z,11.67
2019-01-25T10:18:15.939Z,10.83
2019-01-25T10:21:06.567Z,11.30
2019-01-25T10:23:56.976Z,11.07
2019-01-25T10:26:47.594Z,10.47
2019-01-25T10:29:37.897Z,11.70
2019-01-25T10:32:28.607Z,11.20
2019-01-25T10:35:19.415Z,13.20
2019-01-25T10:38:10.097Z,13.43
2019-01-25T10:41:00.665Z,11.97
2019-01-25T10:43:51.137Z,13.40
2019-01-25T10:46:41.334Z,12.00
2019-01-25T10:49:31.941Z,12.63
2019-01-25T10:52:22.843Z,12.73
2019-01-25T10:55:13.316Z,12.20
2019-01-25T10:58:03.835Z,12.97
2019-01-25T11:00:54.311Z,11.27
2019-01-25T11:03:46.594Z,12.93
2019-01-25T11:06:36.748Z,12.93
2019-01-25T11:09:27.160Z,13.37
2019-01-25T11:12:17.909Z,13.50
2019-01-25T11:15:10.486Z,14.23
2019-01-25T11:18:00.804Z,12.37
2019-01-25T11:20:51.285Z,12.53
2019-01-25T11:23:41.658Z,12.67
2019-01-25T11:26:32.113Z,12.20
2019-01-25T11:29:22.609Z,14.17
2019-01-25T11:32:13.046Z,13.97
2019-01-25T11:35:04.645Z,12.63
2019-01-25T11:37:57.954Z,14.33
2019-01-25T11:40:48.444Z,15.13
2019-01-25T11:43:38.950Z,13.80
2019-01-25T11:46:29.478Z,13.60
2019-01-25T11:49:19.924Z,13.67
2019-01-25T11:52:10.594Z,15.07
2019-01-25T11:55:01.213Z,15.90
2019-01-25T11:57:51.844Z,16.50
2019-01-25T12:00:46.228Z,16.27
2019-01-25T12:03:37.026Z,19.70
2019-01-25T12:06:27.630Z,17.90
2019-01-25T12:09:18.950Z,20.70
2019-01-25T12:12:09.491Z,20.67
2019-01-25T12:15:02.634Z,17.87
2019-01-25T12:17:54.038Z,18.53
2019-01-25T12:20:44.611Z,17.10
2019-01-25T12:23:34.945Z,18.03
2019-01-25T12:26:25.252Z,14.73
2019-01-25T12:29:15.684Z,14.53
2019-01-25T12:32:06.151Z,15.10
2019-01-25T12:35:01.571Z,15.90
2019-01-25T12:37:56.242Z,14.03
2019-01-25T12:40:48.017Z,12.10
2019-01-25T12:43:38.327Z,14.03
2019-01-25T12:46:28.809Z,13.43
2019-01-25T12:49:19.605Z,13.30
2019-01-25T12:52:11.318Z,12.77
2019-01-25T12:55:01.613Z,11.40
2019-01-25T12:57:52.249Z,10.87
2019-01-25T13:00:42.930Z,11.17
2019-01-25T13:03:33.452Z,10.90
2019-01-25T13:06:24.997Z,11.70
2019-01-25T13:09:16.346Z,10.60
2019-01-25T13:12:07.270Z,11.80
2019-01-25T13:14:59.290Z,12.30
2019-01-25T13:17:49.735Z,12.77
2019-01-25T13:20:40.444Z,12.70
2019-01-25T13:23:31.095Z,13.13
2019-01-25T13:26:21.581Z,15.30
2019-01-25T13:29:12.192Z,16.50
2019-01-25T13:32:02.455Z,19.40
2019-01-25T13:34:53.052Z,20.87
2019-01-25T13:37:43.634Z,21.60
2019-01-25T13:40:34.160Z,22.60
2019-01-25T13:43:24.833Z,20.23
2019-01-25T13:46:15.785Z,20.50
2019-01-25T13:49:08.971Z,18.77
2019-01-25T13:51:59.375Z,19.20
2019-01-25T13:54:49.907Z,19.10
2019-01-25T13:57:41.003Z,16.40
2019-01-25T14:00:33.333Z,14.90
2019-01-25T14:03:23.839Z,14.40
2019-01-25T14:06:14.494Z,12.90
2019-01-25T14:09:06.676Z,13.67
2019-01-25T14:11:56.814Z,11.33
2019-01-25T14:14:48.996Z,10.70
2019-01-25T14:17:39.618Z,10.27
2019-01-25T14:20:31.686Z,9.40
2019-01-25T14:23:22.230Z,10.00
2019-01-25T14:26:12.925Z,8.83
2019-01-25T14:29:03.466Z,7.93
2019-01-25T14:31:54.075Z,5.00
2019-01-25T14:34:44.609Z,3.33
2019-01-25T14:37:35.269Z,2.80
2019-01-25T14:40:25.770Z,1.97
2019-01-25T14:43:16.411Z,1.63
2019-01-25T14:46:07.138Z,1.53
2019-01-25T14:48:57.924Z,1.70
2019-01-25T14:51:51.279Z,1.33
2019-01-25T14:54:41.989Z,1.37
2019-01-25T14:57:32.450Z,2.20
2019-01-25T15:00:24.017Z,2.63
2019-01-25T15:03:14.264Z,3.47
2019-01-25T15:06:04.799Z,3.23
2019-01-25T15:08:55.260Z,3.50
2019-01-25T15:11:45.525Z,3.23
2019-01-25T15:14:35.946Z,3.07
2019-01-25T15:17:26.514Z,3.03
2019-01-25T15:20:19.376Z,2.73
2019-01-25T15:23:09.856Z,4.23
2019-01-25T15:26:00.057Z,4.00
2019-01-25T15:28:50.472Z,3.90
2019-01-25T15:31:41.173Z,4.03
2019-01-25T15:34:31.901Z,4.63
2019-01-25T15:37:22.494Z,4.63
2019-01-25T15:40:13.428Z,6.93
2019-01-25T15:43:03.948Z,8.83
2019-01-25T15:45:54.679Z,8.87
2019-01-25T15:48:44.900Z,9.73
2019-01-25T15:51:35.441Z,10.20
2019-01-25T15:54:25.961Z,9.77
2019-01-25T15:57:16.460Z,9.80
2019-01-25T16:00:12.869Z,10.87
2019-01-25T16:03:03.569Z,10.80
2019-01-25T16:05:54.132Z,11.10
2019-01-25T16:08:44.718Z,10.50
2019-01-25T16:11:35.217Z,11.03
2019-01-25T16:14:26.202Z,10.43
2019-01-25T16:17:16.564Z,10.50
2019-01-25T16:20:08.659Z,9.93
2019-01-25T16:22:59.158Z,9.87
2019-01-25T16:25:49.711Z,10.77
2019-01-25T16:28:40.282Z,10.83
2019-01-25T16:31:30.613Z,10.70
2019-01-25T16:34:21.027Z,9.77
2019-01-25T16:37:11.507Z,9.70
2019-01-25T16:40:01.947Z,8.30
2019-01-25T16:42:52.680Z,9.47
2019-01-25T16:45:44.613Z,10.23
2019-01-25T16:48:37.438Z,9.30
2019-01-25T16:51:27.910Z,8.13
2019-01-25T16:54:18.527Z,8.37
2019-01-25T16:57:09.077Z,8.00
2019-01-25T17:00:00.246Z,7.67
2019-01-25T17:02:51.789Z,6.97
2019-01-25T17:05:43.512Z,6.13
2019-01-25T17:08:34.106Z,5.17
2019-01-25T17:11:24.586Z,5.13
2019-01-25T17:14:17.847Z,4.10
2019-01-25T17:17:08.353Z,4.27
2019-01-25T17:19:58.986Z,3.77
2019-01-25T17:22:49.593Z,3.00
2019-01-25T17:25:40.034Z,3.60
2019-01-25T17:28:30.524Z,3.43
2019-01-25T17:31:21.013Z,3.53
2019-01-25T17:34:11.252Z,2.77
2019-01-25T17:37:02.467Z,2.40
2019-01-25T17:39:53.024Z,2.67
2019-01-25T17:42:43.576Z,2.13
2019-01-25T17:45:37.049Z,2.97
2019-01-25T17:48:27.671Z,3.00
2019-01-25T17:51:18.181Z,2.70
2019-01-25T17:54:09.557Z,2.10
2019-01-25T17:57:00.338Z,3.20
2019-01-25T17:59:50.988Z,2.67
2019-01-25T18:02:42.041Z,2.57
2019-01-25T18:05:32.634Z,2.10
2019-01-25T18:08:23.615Z,2.63
2019-01-25T18:11:13.824Z,2.17
2019-01-25T18:14:06.951Z,2.50
2019-01-25T18:16:57.360Z,2.60
2019-01-25T18:19:48.011Z,2.20
2019-01-25T18:22:38.251Z,1.83
2019-01-25T18:25:49.984Z,1.97
2019-01-25T18:29:24.079Z,1.80
2019-01-25T18:32:14.487Z,1.77
2019-01-25T18:35:05.200Z,1.60
2019-01-25T18:37:55.671Z,1.77
2019-01-25T18:40:47.309Z,1.60
2019-01-25T18:43:37.908Z,2.00
2019-01-25T18:46:28.452Z,2.53
2019-01-25T18:49:19.194Z,2.17
2019-01-25T18:52:09.893Z,3.07
2019-01-25T18:55:00.323Z,2.60
2019-01-25T18:57:50.814Z,2.63
2019-01-25T19:00:41.455Z,2.30
2019-01-25T19:03:31.927Z,2.20
2019-01-25T19:06:22.265Z,2.50
2019-01-25T19:09:13.092Z,2.30
2019-01-25T19:12:06.163Z,2.40
2019-01-25T19:14:56.643Z,2.23
2019-01-25T19:17:46.985Z,2.10
2019-01-25T19:20:40.022Z,2.23
2019-01-25T19:23:30.576Z,2.63
2019-01-25T19:26:21.072Z,1.90
2019-01-25T19:29:11.583Z,1.90
2019-01-25T19:32:02.288Z,2.53
2019-01-25T19:34:53.191Z,2.30
2019-01-25T19:37:45.696Z,1.80
2019-01-25T19:40:36.703Z,2.03
2019-01-25T19:43:27.025Z,2.60
2019-01-25T19:46:17.387Z,1.97
2019-01-25T19:49:07.679Z,1.93
2019-01-25T19:51:58.220Z,2.40
2019-01-25T19:54:48.624Z,2.30
2019-01-25T19:57:38.924Z,2.53
2019-01-25T20:00:31.614Z,2.10
2019-01-25T20:03:22.251Z,2.40
2019-01-25T20:06:12.861Z,2.03
2019-01-25T20:09:04.210Z,2.30
2019-01-25T20:11:55.629Z,2.20
2019-01-25T20:14:46.227Z,2.50
2019-01-25T20:17:36.825Z,2.37
2019-01-25T20:20:30.100Z,2.30
2019-01-25T20:23:20.540Z,2.20
2019-01-25T20:26:11.619Z,2.40
2019-01-25T20:29:02.088Z,2.83
2019-01-25T20:31:52.574Z,1.90
2019-01-25T20:34:42.987Z,2.27
2019-01-25T20:37:33.351Z,2.50
2019-01-25T20:40:23.672Z,2.10
2019-01-25T20:43:14.264Z,1.87
2019-01-25T20:46:05.800Z,2.00
2019-01-25T20:48:56.418Z,1.70
2019-01-25T20:51:47.043Z,1.50
2019-01-25T20:54:37.606Z,1.80
2019-01-25T20:57:28.005Z,1.20
2019-01-25T21:00:24.405Z,1.40
2019-01-25T21:03:16.402Z,1.50
2019-01-25T21:06:07.079Z,1.60
2019-01-25T21:08:57.598Z,1.87
2019-01-25T21:11:47.953Z,1.70
2019-01-25T21:14:38.793Z,1.80
2019-01-25T21:17:29.846Z,1.60
2019-01-25T21:20:40.891Z,1.93
2019-01-25T21:23:31.693Z,1.97
2019-01-25T21:26:22.188Z,1.80
2019-01-25T21:29:12.676Z,1.57
2019-01-25T21:32:03.292Z,1.30
2019-01-25T21:34:54.131Z,1.60
2019-01-25T21:37:44.345Z,1.67
2019-01-25T21:40:34.873Z,1.30
2019-01-25T21:43:25.430Z,1.43
2019-01-25T21:46:15.915Z,1.83
2019-01-25T21:49:08.552Z,1.50
2019-01-25T21:51:58.844Z,1.63
2019-01-25T21:54:53.212Z,1.60
2019-01-25T21:57:44.975Z,1.50
2019-01-25T22:00:35.561Z,1.40
2019-01-25T22:03:26.095Z,1.50
2019-01-25T22:06:16.541Z,1.40
2019-01-25T22:09:08.552Z,1.70
2019-01-25T22:11:58.999Z,1.43
2019-01-25T22:14:49.640Z,1.63
2019-01-25T22:17:40.291Z,1.30
2019-01-25T22:20:31.439Z,1.63
2019-01-25T22:23:22.101Z,1.30
2019-01-25T22:26:12.792Z,1.80
2019-01-25T22:29:03.155Z,1.63
2019-01-25T22:31:53.434Z,1.53
2019-01-25T22:34:44.916Z,1.50
2019-01-25T22:37:35.600Z,1.60
2019-01-25T22:40:27.761Z,1.80
2019-01-25T22:43:18.270Z,1.30
2019-01-25T22:46:08.717Z,1.30
2019-01-25T22:48:59.709Z,1.43
2019-01-25T22:51:50.130Z,1.40
2019-01-25T22:54:42.926Z,2.00
2019-01-25T22:57:33.333Z,1.67
2019-01-25T23:00:53.292Z,1.70
2019-01-25T23:04:20.566Z,1.40
2019-01-25T23:07:16.868Z,1.70
2019-01-25T23:10:13.234Z,2.40
2019-01-25T23:13:03.514Z,2.13
2019-01-25T23:15:54.586Z,2.23
2019-01-25T23:18:45.202Z,1.90
2019-01-25T23:21:35.450Z,2.30
2019-01-25T23:24:25.756Z,1.90
2019-01-25T23:27:17.167Z,2.37
2019-01-25T23:30:11.502Z,2.27
2019-01-25T23:33:01.869Z,2.03
2019-01-25T23:35:52.298Z,2.10
2019-01-25T23:38:42.481Z,2.20
2019-01-25T23:41:33.433Z,2.33
2019-01-25T23:44:23.778Z,2.43
2019-01-25T23:47:14.124Z,2.20
2019-01-25T23:50:04.780Z,2.03
2019-01-25T23:52:55.162Z,2.40
2019-01-25T23:55:45.647Z,1.67
2019-01-25T23:58:35.976Z,2.40
